Time;durP1;ratioP1;P1;durP2;ratioP2;P2;SDS_P1;SDS_P2;PMS_P1;PMS_P2;Temp;Humidity;BMP_temperature;BMP_pressure;BME280_temperature;BME280_humidity;BME280_pressure;Samples;Min_cycle;Max_cycle;Signal;HPM_P1;HPM_P2
2023/09/20 00:01:14;;;;;;;3.50;1.20;;;;;;;;;;6125449;23;20010;-78
2023/09/20 00:03:40;;;;;;;2.47;1.33;;;;;;;;;;6125401;23;20020;-78
2023/09/20 00:06:09;;;;;;;5.25;1.30;;;;;;;;;;6126049;23;20012;-79
2023/09/20 00:08:36;;;;;;;1.73;1.10;;;;;;;;;;6125790;23;20002;-78
2023/09/20 00:11:05;;;;;;;2.95;1.38;;;;;;;;;;6125512;23;20006;-78
2023/09/20 00:13:33;;;;;;;3.35;1.40;;;21.40;75.80;;;;;;6125874;23;20009;-78
2023/09/20 00:16:00;;;;;;;3.08;1.60;;;;;;;;;;6135378;23;20045;-78
2023/09/20 00:18:26;;;;;;;3.20;1.20;;;;;;;;;;6135265;23;20069;-78
2023/09/20 00:20:53;;;;;;;3.63;1.58;;;;;;;;;;6135228;23;20033;-78
2023/09/20 00:23:21;;;;;;;3.35;1.38;;;;;;;;;;6125689;23;20002;-78
2023/09/20 00:25:49;;;;;;;5.65;1.48;;;21.50;70.10;;;;;;6135281;23;20005;-78
2023/09/20 00:28:17;;;;;;;3.15;1.42;;;21.90;76.30;;;;;;6135159;23;19994;-77
2023/09/20 00:30:45;;;;;;;2.58;1.30;;;;;;;;;;6125706;23;20005;-78
2023/09/20 00:33:11;;;;;;;1.85;1.23;;;;;;;;;;6135750;23;20362;-70
2023/09/20 00:35:39;;;;;;;3.90;1.35;;;21.40;73.00;;;;;;6135125;23;20002;-70
2023/09/20 00:38:06;;;;;;;3.50;1.58;;;;;;;;;;6125211;23;19994;-70
2023/09/20 00:40:33;;;;;;;3.95;1.52;;;21.30;74.40;;;;;;6135033;23;20010;-70
2023/09/20 00:43:00;;;;;;;3.97;1.50;;;;;;;;;;6134972;23;20002;-70
2023/09/20 00:45:26;;;;;;;2.85;1.25;;;;;;;;;;6135058;23;19998;-70
2023/09/20 00:47:58;;;;;;;3.63;1.30;;;;;;;;;;6125588;23;20006;-70
2023/09/20 00:50:34;;;;;;;3.20;1.17;;;21.40;70.00;;;;;;6125473;23;20035;-70
2023/09/20 00:53:00;;;;;;;3.95;1.52;;;21.40;75.90;;;;;;6125128;23;20437;-70
2023/09/20 00:55:29;;;;;;;2.28;1.60;;;21.40;75.90;;;;;;6135042;23;20192;-70
2023/09/20 00:57:59;;;;;;;3.10;1.27;;;21.40;75.80;;;;;;6124943;23;19998;-70
2023/09/20 01:00:27;;;;;;;3.05;1.08;;;;;;;;;;6134294;23;20469;-70
2023/09/20 01:02:57;;;;;;;3.08;1.33;;;21.40;70.10;;;;;;6135174;23;20153;-70
2023/09/20 01:05:36;;;;;;;2.22;1.05;;;21.40;74.60;;;;;;6125299;23;20021;-70
2023/09/20 01:08:03;;;;;;;3.00;1.55;;;21.40;72.70;;;;;;6134833;23;19998;-70
2023/09/20 01:10:31;;;;;;;1.95;1.35;;;;;;;;;;6134694;23;20004;-70
2023/09/20 01:12:58;;;;;;;3.17;1.10;;;21.70;75.90;;;;;;6124911;23;20040;-70
2023/09/20 01:15:26;;;;;;;2.47;1.00;;;21.40;74.60;;;;;;6134655;23;20001;-70
2023/09/20 01:17:55;;;;;;;2.92;1.40;;;21.50;74.20;;;;;;6134653;23;20445;-70
2023/09/20 01:20:23;;;;;;;4.63;1.23;;;21.40;73.60;;;;;;6124994;23;20013;-70
2023/09/20 01:22:51;;;;;;;4.75;1.27;;;21.40;75.70;;;;;;6134635;23;20092;-70
2023/09/20 01:25:30;;;;;;;3.60;1.55;;;21.40;70.20;;;;;;6125152;23;19994;-70
2023/09/20 01:28:00;;;;;;;3.80;1.35;;;21.40;75.70;;;;;;6134715;23;20002;-70
2023/09/20 01:30:31;;;;;;;4.35;1.40;;;21.50;75.70;;;;;;6135885;23;20002;-70
2023/09/20 01:33:00;;;;;;;4.03;1.25;;;21.40;75.70;;;;;;6125084;23;20001;-70
2023/09/20 01:35:29;;;;;;;2.85;1.50;;;21.30;75.70;;;;;;6125064;23;20142;-70
2023/09/20 01:37:55;;;;;;;2.70;1.23;;;;;;;;;;6134505;23;19994;-70
2023/09/20 01:40:26;;;;;;;3.60;1.48;;;21.40;76.10;;;;;;6134559;23;20017;-70
2023/09/20 01:42:58;;;;;;;2.88;1.33;;;21.30;75.70;;;;;;6134777;23;20413;-70
2023/09/20 01:45:24;;;;;;;4.18;1.45;;;;;;;;;;6124722;23;20001;-70
2023/09/20 01:47:52;;;;;;;2.38;1.52;;;21.40;75.80;;;;;;6134595;23;20001;-70
2023/09/20 01:50:25;;;;;;;3.22;1.30;;;21.40;75.80;;;;;;6134531;23;20438;-70
2023/09/20 01:52:53;;;;;;;2.55;1.30;;;21.40;76.00;;;;;;6134596;23;19994;-70
2023/09/20 01:55:24;;;;;;;2.58;1.27;;;21.40;70.30;;;;;;6134593;23;19998;-70
2023/09/20 01:57:52;;;;;;;2.42;1.40;;;21.40;75.90;;;;;;6134546;23;20144;-70
2023/09/20 02:00:22;;;;;;;4.50;1.55;;;21.30;75.70;;;;;;6134894;23;20079;-70
2023/09/20 02:02:55;;;;;;;2.83;1.30;;;21.30;70.30;;;;;;6134218;23;20060;-70
2023/09/20 02:05:23;;;;;;;2.17;1.23;;;21.30;72.50;;;;;;6134355;23;20009;-70
2023/09/20 02:07:50;;;;;;;2.25;1.40;;;21.30;74.20;;;;;;6134315;23;20033;-70
2023/09/20 02:10:17;;;;;;;3.42;1.65;;;;;;;;;;6134488;23;20045;-70
2023/09/20 02:12:47;;;;;;;4.03;1.48;;;21.40;70.20;;;;;;6134254;23;20058;-70
2023/09/20 02:15:14;;;;;;;2.17;1.33;;;21.40;75.80;;;;;;6134381;23;20433;-70
2023/09/20 02:17:41;;;;;;;4.15;1.88;;;21.30;73.60;;;;;;6134184;23;20029;-70
2023/09/20 02:20:11;;;;;;;3.33;1.30;;;21.40;73.60;;;;;;6124696;23;20013;-70
2023/09/20 02:22:40;;;;;;;3.25;1.40;;;21.40;76.00;;;;;;6134242;23;20001;-70
2023/09/20 02:25:11;;;;;;;5.03;1.65;;;21.30;75.80;;;;;;6134283;23;20009;-70
2023/09/20 02:27:41;;;;;;;3.00;1.70;;;21.30;70.10;;;;;;6124979;23;20456;-70
2023/09/20 02:30:11;;;;;;;3.53;1.20;;;21.30;75.80;;;;;;6134869;23;20002;-70
2023/09/20 02:32:37;;;;;;;2.67;1.15;;;;;;;;;;6124220;23;20033;-70
2023/09/20 02:35:04;;;;;;;2.97;1.40;;;21.30;75.80;;;;;;6134244;23;20013;-70
2023/09/20 02:37:34;;;;;;;2.13;1.20;;;21.30;70.20;;;;;;6124346;23;20077;-70
2023/09/20 02:40:00;;;;;;;3.47;1.77;;;;;;;;;;6124761;23;20084;-70
2023/09/20 02:42:28;;;;;;;3.25;1.30;;;21.30;75.30;;;;;;6134216;23;20001;-70
2023/09/20 02:44:55;;;;;;;3.08;1.50;;;;;;;;;;6134066;23;20004;-70
2023/09/20 02:47:23;;;;;;;4.03;1.67;;;;;;;;;;6124663;23;20002;-70
2023/09/20 02:49:50;;;;;;;4.57;1.80;;;;;;;;;;6134121;23;20329;-70
2023/09/20 02:52:17;;;;;;;3.45;1.33;;;;;;;;;;6124582;23;20330;-69
2023/09/20 02:54:44;;;;;;;2.10;1.40;;;;;;;;;;6124529;23;20084;-70
2023/09/20 02:57:11;;;;;;;2.70;1.50;;;21.30;73.20;;;;;;6124812;23;20430;-70
2023/09/20 02:59:39;;;;;;;3.58;1.63;;;21.20;72.20;;;;;;6124433;23;20006;-70
2023/09/20 03:02:06;;;;;;;4.25;1.50;;;;;;;;;;6124169;23;20013;-70
2023/09/20 03:04:32;;;;;;;2.88;1.50;;;20.80;72.60;;;;;;6124062;23;20080;-70
2023/09/20 03:07:01;;;;;;;4.65;1.48;;;;;;;;;;6124242;23;19994;-70
2023/09/20 03:09:32;;;;;;;2.40;1.25;;;;;;;;;;6132294;23;20033;-70
2023/09/20 03:11:58;;;;;;;4.38;1.45;;;;;;;;;;6134107;23;20002;-70
2023/09/20 03:14:24;;;;;;;2.05;1.30;;;;;;;;;;6134013;23;20070;-70
2023/09/20 03:16:50;;;;;;;2.78;1.13;;;;;;;;;;6133995;23;19998;-70
2023/09/20 03:19:20;;;;;;;4.63;1.30;;;;;;;;;;6124082;23;20441;-70
2023/09/20 03:21:47;;;;;;;2.60;1.23;;;;;;;;;;6124290;23;20069;-70
2023/09/20 03:24:13;;;;;;;2.80;1.30;;;;;;;;;;6135377;23;20079;-70
2023/09/20 03:26:39;;;;;;;3.72;1.40;;;;;;;;;;6126338;23;20006;-70
2023/09/20 03:29:07;;;;;;;2.13;1.50;;;;;;;;;;6135646;23;20006;-70
2023/09/20 03:31:33;;;;;;;4.85;1.60;;;;;;;;;;6135678;23;20460;-70
2023/09/20 03:34:03;;;;;;;4.20;1.50;;;;;;;;;;6135531;23;19998;-78
2023/09/20 03:36:32;;;;;;;5.38;1.42;;;;;;;;;;6126332;23;20028;-78
2023/09/20 03:38:58;;;;;;;1.95;1.13;;;;;;;;;;6135527;23;20076;-78
2023/09/20 03:41:25;;;;;;;4.03;1.20;;;;;;;;;;6125850;23;20508;-78
2023/09/20 03:43:51;;;;;;;2.50;1.17;;;;;;;;;;6125602;23;20060;-79
2023/09/20 03:46:17;;;;;;;3.25;1.30;;;;;;;;;;6126085;23;20024;-78
2023/09/20 03:48:44;;;;;;;3.03;1.20;;;;;;;;;;6126097;23;20310;-78
2023/09/20 03:51:15;;;;;;;3.80;1.40;;;21.30;70.60;;;;;;6126045;23;20009;-79
2023/09/20 03:53:43;;;;;;;3.08;1.52;;;21.30;76.30;;;;;;6126581;23;19994;-78
2023/09/20 03:56:11;;;;;;;6.50;1.85;;;;;;;;;;6125994;23;20001;-79
2023/09/20 03:58:38;;;;;;;2.20;1.50;;;21.20;76.50;;;;;;6125524;23;20038;-78
2023/09/20 04:01:05;;;;;;;4.35;1.80;;;;;;;;;;6125801;23;20053;-79
2023/09/20 04:03:34;;;;;;;5.00;2.30;;;;;;;;;;6135151;23;20087;-78
2023/09/20 04:06:00;;;;;;;4.90;2.30;;;;;;;;;;6125657;23;20469;-78
2023/09/20 04:08:27;;;;;;;3.28;2.50;;;;;;;;;;6135432;23;20032;-78
2023/09/20 04:10:53;;;;;;;3.47;2.60;;;;;;;;;;6135386;23;20009;-78
2023/09/20 04:13:19;;;;;;;4.20;3.53;;;;;;;;;;6135408;23;20001;-79
2023/09/20 04:15:45;;;;;;;4.72;3.47;;;;;;;;;;6135302;23;20052;-78
2023/09/20 04:18:12;;;;;;;4.47;3.13;;;21.20;74.40;;;;;;6135351;23;20041;-79
2023/09/20 04:20:39;;;;;;;4.38;3.67;;;;;;;;;;6125407;23;20485;-79
2023/09/20 04:23:06;;;;;;;6.38;3.75;;;;;;;;;;6125812;23;20121;-79
2023/09/20 04:25:35;;;;;;;5.57;4.47;;;;;;;;;;6125722;23;20006;-78
2023/09/20 04:28:02;;;;;;;6.65;4.50;;;;;;;;;;6125764;23;20375;-78
2023/09/20 04:30:30;;;;;;;5.35;4.55;;;;;;;;;;6125818;23;20009;-78
2023/09/20 04:32:57;;;;;;;5.32;3.90;;;;;;;;;;6125464;23;20006;-78
2023/09/20 04:35:23;;;;;;;4.97;4.20;;;;;;;;;;6125106;23;20025;-77
2023/09/20 04:37:50;;;;;;;6.38;4.70;;;;;;;;;;6125430;23;20006;-78
2023/09/20 04:40:18;;;;;;;6.93;5.18;;;;;;;;;;6125446;23;20020;-78
2023/09/20 04:42:45;;;;;;;6.18;4.55;;;;;;;;;;6125598;23;20342;-79
2023/09/20 04:45:15;;;;;;;5.90;5.30;;;;;;;;;;6125303;23;20012;-78
2023/09/20 04:47:42;;;;;;;5.10;4.20;;;;;;;;;;6125583;23;20073;-78
2023/09/20 04:50:08;;;;;;;5.13;4.32;;;;;;;;;;6126065;23;20010;-79
2023/09/20 04:52:35;;;;;;;5.45;4.53;;;;;;;;;;6125445;23;20100;-78
2023/09/20 04:55:01;;;;;;;4.78;3.72;;;;;;;;;;6125520;23;20013;-78
2023/09/20 04:57:28;;;;;;;6.45;4.20;;;;;;;;;;6125048;23;20002;-78
2023/09/20 04:59:54;;;;;;;4.22;3.83;;;;;;;;;;6099517;23;20014;-78
2023/09/20 05:02:22;;;;;;;5.07;3.92;;;;;;;;;;6134680;23;20009;-78
2023/09/20 05:04:48;;;;;;;6.45;3.97;;;;;;;;;;6134797;23;20048;-78
2023/09/20 05:07:14;;;;;;;4.45;3.67;;;;;;;;;;6098949;23;20006;-78
2023/09/20 05:09:40;;;;;;;4.07;3.58;;;;;;;;;;6134896;23;20005;-79
2023/09/20 05:12:09;;;;;;;3.30;3.00;;;;;;;;;;6134801;23;19995;-78
2023/09/20 05:14:35;;;;;;;6.05;3.20;;;;;;;;;;6124852;23;20406;-78
2023/09/20 05:17:04;;;;;;;3.13;2.80;;;;;;;;;;6124784;23;20002;-78
2023/09/20 05:19:30;;;;;;;4.65;3.00;;;;;;;;;;6125642;23;20036;-77
2023/09/20 05:22:00;;;;;;;3.03;2.10;;;;;;;;;;6134580;23;20025;-77
2023/09/20 05:24:26;;;;;;;4.47;2.78;;;;;;;;;;6125119;23;20342;-76
2023/09/20 05:26:53;;;;;;;5.47;2.63;;;;;;;;;;6125142;23;20002;-77
2023/09/20 05:29:19;;;;;;;5.47;2.47;;;;;;;;;;6125019;23;20006;-76
2023/09/20 05:31:46;;;;;;;3.28;1.95;;;;;;;;;;6124728;23;20002;-75
2023/09/20 05:34:12;;;;;;;4.05;2.10;;;;;;;;;;6124907;23;20028;-74
2023/09/20 05:36:39;;;;;;;3.40;2.00;;;;;;;;;;6124537;23;20013;-76
2023/09/20 05:39:06;;;;;;;3.90;2.22;;;;;;;;;;6124769;23;20021;-75
2023/09/20 05:41:34;;;;;;;4.45;1.88;;;;;;;;;;6124826;23;20021;-75
2023/09/20 05:44:00;;;;;;;3.60;2.03;;;;;;;;;;6134752;23;19998;-76
2023/09/20 05:46:26;;;;;;;4.53;2.10;;;;;;;;;;6134775;23;20005;-76
2023/09/20 05:48:52;;;;;;;2.58;1.65;;;;;;;;;;6134347;23;20029;-76
2023/09/20 05:51:18;;;;;;;4.03;1.70;;;;;;;;;;6124469;23;20002;-75
2023/09/20 05:53:45;;;;;;;3.30;2.10;;;;;;;;;;6124513;23;20461;-74
2023/09/20 05:56:12;;;;;;;3.67;1.80;;;;;;;;;;6124510;23;20371;-76
2023/09/20 05:58:42;;;;;;;2.85;1.38;;;;;;;;;;6124661;23;20101;-77
2023/09/20 06:01:09;;;;;;;3.10;1.63;;;;;;;;;;6124446;23;20513;-77
2023/09/20 06:03:36;;;;;;;1.60;1.40;;;21.20;76.10;;;;;;6124315;23;20350;-77
2023/09/20 06:06:07;;;;;;;2.72;1.42;;;;;;;;;;6124715;23;20166;-77
2023/09/20 06:08:35;;;;;;;2.10;1.75;;;;;;;;;;6124814;23;20322;-78
2023/09/20 06:11:04;;;;;;;3.45;1.83;;;;;;;;;;6124618;23;20017;-79
2023/09/20 06:13:32;;;;;;;2.55;1.50;;;21.20;76.00;;;;;;6124722;23;20017;-78
2023/09/20 06:15:58;;;;;;;2.40;1.25;;;;;;;;;;6125305;23;20005;-77
2023/09/20 06:18:25;;;;;;;2.33;1.48;;;;;;;;;;6124548;23;20577;-77
2023/09/20 06:20:51;;;;;;;3.00;1.20;;;;;;;;;;6124674;23;20002;-79
2023/09/20 06:23:18;;;;;;;2.92;1.55;;;21.20;76.80;;;;;;6124774;23;20437;-78
2023/09/20 06:25:49;;;;;;;3.65;1.75;;;;;;;;;;6124717;23;20074;-78
2023/09/20 06:28:15;;;;;;;3.47;1.45;;;;;;;;;;6124782;23;20002;-78
2023/09/20 06:30:42;;;;;;;2.03;1.20;;;;;;;;;;6124328;23;20437;-78
2023/09/20 06:33:08;;;;;;;2.70;1.42;;;;;;;;;;6124952;23;20053;-87
2023/09/20 06:35:39;;;;;;;2.67;1.40;;;21.10;76.80;;;;;;6136014;23;20002;-91
2023/09/20 06:38:05;;;;;;;3.40;1.40;;;;;;;;;;6126583;23;19998;-84
2023/09/20 06:40:38;;;;;;;4.47;1.38;;;;;;;;;;6125301;23;20021;-91
2023/09/20 06:43:08;;;;;;;2.22;1.30;;;21.20;76.20;;;;;;6124901;23;20073;-83
2023/09/20 06:45:35;;;;;;;3.03;1.20;;;;;;;;;;6125199;23;20002;-82
2023/09/20 06:48:02;;;;;;;1.70;1.30;;;;;;;;;;6124861;23;20009;-83
2023/09/20 06:50:29;;;;;;;2.03;1.02;;;21.20;77.10;;;;;;6124683;23;20061;-80
2023/09/20 06:52:55;;;;;;;2.95;1.45;;;;;;;;;;6124610;23;20058;-78
2023/09/20 06:55:21;;;;;;;3.35;1.75;;;;;;;;;;6134048;23;20382;-77
2023/09/20 06:57:47;;;;;;;4.78;1.45;;;21.20;75.60;;;;;;6134083;23;19994;-78
2023/09/20 07:00:24;;;;;;;3.20;1.15;;;21.10;77.00;;;;;;6125840;23;20030;-79
2023/09/20 07:03:03;;;;;;;2.17;1.05;;;;;;;;;;6120659;23;20018;-79
2023/09/20 07:05:30;;;;;;;9.20;1.45;;;;;;;;;;6126511;23;20009;-78
2023/09/20 07:07:58;;;;;;;5.68;1.55;;;21.20;75.90;;;;;;6125987;23;20001;-79
2023/09/20 07:10:26;;;;;;;3.45;1.40;;;21.20;75.30;;;;;;6126338;23;20008;-79
2023/09/20 07:12:55;;;;;;;4.20;1.40;;;;;;;;;;6127308;23;20065;-77
2023/09/20 07:15:24;;;;;;;4.22;1.75;;;21.30;77.40;;;;;;6135936;23;20142;-76
2023/09/20 07:17:58;;;;;;;2.05;1.20;;;;;;;;;;6110700;23;20028;-76
2023/09/20 07:20:25;;;;;;;2.42;1.20;;;21.20;76.20;;;;;;6125996;23;20045;-77
2023/09/20 07:22:51;;;;;;;1.05;0.88;;;;;;;;;;6125918;23;20445;-77
2023/09/20 07:25:21;;;;;;;3.30;1.30;;;;;;;;;;6125885;23;20438;-76
2023/09/20 07:27:50;;;;;;;1.60;1.02;;;21.10;77.50;;;;;;6125943;23;20073;-76
2023/09/20 07:30:19;;;;;;;3.50;0.85;;;21.20;77.30;;;;;;6135748;23;19998;-76
2023/09/20 07:32:47;;;;;;;2.03;1.05;;;21.20;77.50;;;;;;6126162;23;19994;-77
2023/09/20 07:38:29;;;;;;;3.53;1.45;;;;;;;;;;6070789;23;20042;-80
2023/09/20 07:41:14;;;;;;;1.13;0.88;;;21.30;71.80;;;;;;6136189;23;20010;-80
2023/09/20 07:43:44;;;;;;;2.83;1.20;;;;;;;;;;6126058;23;20053;-80
2023/09/20 07:46:15;;;;;;;2.28;1.15;;;21.20;77.30;;;;;;6126133;23;20078;-80
2023/09/20 07:48:48;;;;;;;1.30;0.98;;;;;;;;;;6135661;23;20001;-79
2023/09/20 07:51:14;;;;;;;2.17;1.00;;;;;;;;;;6126179;23;20052;-80
2023/09/20 07:53:40;;;;;;;3.55;1.13;;;;;;;;;;6135631;23;20028;-80
2023/09/20 07:56:07;;;;;;;2.83;1.00;;;;;;;;;;6135323;23;20086;-80
2023/09/20 07:58:36;;;;;;;1.63;1.10;;;;;;;;;;6135423;23;20030;-76
2023/09/20 08:01:10;;;;;;;3.33;1.27;;;21.20;72.20;;;;;;6135562;23;20002;-81
2023/09/20 08:03:36;;;;;;;3.08;1.00;;;;;;;;;;6125368;23;20006;-79
2023/09/20 08:06:08;;;;;;;4.32;1.10;;;;;;;;;;6135490;23;20349;-79
2023/09/20 08:08:35;;;;;;;2.13;0.95;;;;;;;;;;6135547;23;20334;-79
2023/09/20 08:11:01;;;;;;;1.85;0.90;;;;;;;;;;6126410;23;20002;-79
2023/09/20 08:13:27;;;;;;;1.55;0.88;;;;;;;;;;6135446;23;20005;-79
2023/09/20 08:15:53;;;;;;;3.88;1.15;;;;;;;;;;6125788;23;19997;-79
2023/09/20 08:21:04;;;;;;;2.08;0.90;;;;;;;;;;6135736;23;20021;-79
2023/09/20 09:02:14;;;;;;;3.28;1.30;;;21.30;75.50;;;;;;6134462;23;20024;-77
2023/09/20 09:04:54;;;;;;;2.25;1.00;;;21.50;77.90;;;;;;6134803;23;20011;-78
2023/09/20 09:07:22;;;;;;;2.03;1.10;;;21.20;76.30;;;;;;6135335;23;20326;-77
2023/09/20 09:09:49;;;;;;;1.92;1.00;;;;;;;;;;6125088;23;20022;-77
2023/09/20 09:12:15;;;;;;;2.95;1.17;;;;;;;;;;6134880;23;20010;-78
2023/09/20 09:14:42;;;;;;;1.65;1.13;;;;;;;;;;6125250;23;20013;-77
2023/09/20 09:17:09;;;;;;;2.15;1.20;;;21.30;78.10;;;;;;6134662;23;19998;-78
2023/09/20 09:19:38;;;;;;;2.47;1.20;;;21.30;72.40;;;;;;6125080;23;20017;-78
2023/09/20 09:22:06;;;;;;;5.90;1.23;;;21.30;74.10;;;;;;6124826;23;20386;-78
2023/09/20 09:24:46;;;;;;;2.22;1.00;;;21.30;71.90;;;;;;6125105;23;20170;-78
2023/09/20 09:27:14;;;;;;;3.17;1.65;;;;;;;;;;6125153;23;19998;-78
2023/09/20 09:29:42;;;;;;;1.60;0.95;;;21.20;77.70;;;;;;6125030;23;20002;-78
2023/09/20 09:32:08;;;;;;;1.58;0.93;;;;;;;;;;6124564;23;19994;-77
2023/09/20 09:34:35;;;;;;;1.33;0.88;;;;;;;;;;6124934;23;20006;-84
2023/09/20 09:37:01;;;;;;;3.03;1.25;;;;;;;;;;6124742;23;20029;-85
2023/09/20 09:39:29;;;;;;;2.90;1.10;;;;;;;;;;6124456;23;20090;-78
2023/09/20 09:41:57;;;;;;;3.85;1.23;;;;;;;;;;6124831;23;20002;-78
2023/09/20 09:44:25;;;;;;;3.05;1.50;;;;;;;;;;6124570;23;20010;-81
2023/09/20 09:46:54;;;;;;;2.20;1.10;;;21.30;77.40;;;;;;6124756;23;20073;-82
2023/09/20 09:49:20;;;;;;;2.17;1.30;;;;;;;;;;6124798;23;20067;-80
2023/09/20 09:51:52;;;;;;;2.92;1.00;;;21.30;75.90;;;;;;6124875;23;20009;-81
2023/09/20 09:54:35;;;;;;;2.95;1.20;;;21.30;74.50;;;;;;6122106;23;20258;-80
2023/09/20 09:57:02;;;;;;;3.03;1.10;;;;;;;;;;6124752;23;19994;-81
2023/09/20 09:59:28;;;;;;;1.30;1.13;;;;;;;;;;6124692;23;20013;-81
2023/09/20 10:01:56;;;;;;;3.28;1.17;;;21.30;77.50;;;;;;6124180;23;20410;-80
2023/09/20 10:04:23;;;;;;;2.72;1.30;;;;;;;;;;6124870;23;20040;-81
2023/09/20 10:07:05;;;;;;;2.33;1.20;;;21.40;77.70;;;;;;6124804;23;20006;-79
2023/09/20 10:09:37;;;;;;;1.02;0.93;;;21.30;77.60;;;;;;6124764;23;20325;-78
2023/09/20 10:12:04;;;;;;;3.03;0.80;;;21.30;76.30;;;;;;6125467;23;20001;-78
2023/09/20 10:14:36;;;;;;;2.05;1.20;;;;;;;;;;6124400;23;20005;-80
2023/09/20 10:17:02;;;;;;;2.75;0.90;;;;;;;;;;6124453;23;20493;-79
2023/09/20 10:19:29;;;;;;;2.03;1.20;;;;;;;;;;6124208;23;20035;-80
2023/09/20 10:22:11;;;;;;;2.47;0.98;;;21.40;71.90;;;;;;6124767;23;20053;-82
2023/09/20 10:24:55;;;;;;;2.50;1.20;;;21.40;76.30;;;;;;6121829;23;20077;-80
2023/09/20 10:27:22;;;;;;;2.45;0.95;;;21.40;76.80;;;;;;6124345;23;20081;-79
2023/09/20 10:30:02;;;;;;;1.48;0.90;;;21.40;71.80;;;;;;6124671;23;20117;-80
2023/09/20 10:32:48;;;;;;;2.40;1.17;;;21.40;71.90;;;;;;6125152;23;20002;-80
2023/09/20 10:35:22;;;;;;;2.35;1.05;;;21.40;71.80;;;;;;6126674;23;20017;-80
2023/09/20 10:38:12;;;;;;;4.53;1.13;;;21.40;71.90;;;;;;6126711;23;19998;-80
2023/09/20 10:40:48;;;;;;;1.75;1.33;;;21.40;71.70;;;;;;6127076;23;20017;-80
2023/09/20 10:43:35;;;;;;;2.45;1.40;;;21.50;72.00;;;;;;6125706;23;20006;-80
2023/09/20 10:46:22;;;;;;;1.83;1.10;;;;;;;;;;6126079;23;20020;-80
2023/09/20 10:49:07;;;;;;;3.20;1.10;;;;;;;;;;6125756;23;20414;-80
2023/09/20 10:51:54;;;;;;;2.85;1.30;;;;;;;;;;6125975;23;20341;-79
2023/09/20 10:54:39;;;;;;;3.85;1.38;;;;;;;;;;6125771;23;20006;-79
2023/09/20 10:57:25;;;;;;;2.20;1.10;;;;;;;;;;6125910;23;20468;-80
2023/09/20 11:00:13;;;;;;;4.30;1.40;;;;;;;;;;6125756;23;20014;-80
2023/09/20 11:02:57;;;;;;;3.00;1.33;;;21.50;75.30;;;;;;6125070;23;20018;-80
2023/09/20 11:05:44;;;;;;;3.47;1.48;;;21.60;77.60;;;;;;6125561;23;20010;-79
2023/09/20 11:08:30;;;;;;;1.60;1.25;;;;;;;;;;6126332;23;20133;-79
2023/09/20 11:11:16;;;;;;;1.67;1.25;;;;;;;;;;6125842;23;20013;-80
2023/09/20 11:14:03;;;;;;;2.65;1.17;;;;;;;;;;6125937;23;20006;-80
2023/09/20 11:16:48;;;;;;;1.80;1.08;;;;;;;;;;6125310;23;20386;-80
2023/09/20 11:19:35;;;;;;;2.40;1.27;;;21.70;75.50;;;;;;6125670;23;20018;-80
2023/09/20 11:22:20;;;;;;;2.67;1.73;;;;;;;;;;6125629;23;20089;-80
2023/09/20 11:25:07;;;;;;;3.25;1.65;;;;;;;;;;6125745;23;20085;-80
2023/09/20 11:27:53;;;;;;;5.47;1.65;;;;;;;;;;6125744;23;20109;-80
2023/09/20 11:30:40;;;;;;;3.40;1.50;;;;;;;;;;6125713;23;20288;-80
2023/09/20 11:33:28;;;;;;;2.50;1.40;;;22.00;76.60;;;;;;6125552;23;20002;-80
2023/09/20 11:36:19;;;;;;;2.33;1.38;;;22.10;71.10;;;;;;6125713;23;20049;-80
2023/09/20 11:39:05;;;;;;;4.72;1.67;;;;;;;;;;6124983;23;20025;-81
2023/09/20 11:41:32;;;;;;;3.00;1.90;;;22.30;74.50;;;;;;6126563;23;20005;-80
2023/09/20 11:44:05;;;;;;;1.42;1.30;;;22.40;70.30;;;;;;6125764;23;20056;-80
2023/09/20 11:46:54;;;;;;;3.50;1.70;;;22.50;69.70;;;;;;6123341;23;20006;-80
2023/09/20 11:49:22;;;;;;;2.15;1.58;;;;;;;;;;6126114;23;20071;-80
2023/09/20 11:51:50;;;;;;;2.40;1.80;;;22.70;74.80;;;;;;6125962;23;20064;-80
2023/09/20 11:54:17;;;;;;;4.07;1.90;;;;;;;;;;6125586;23;20074;-80
2023/09/20 11:56:47;;;;;;;4.00;1.73;;;23.00;73.70;;;;;;6125701;23;20445;-80
2023/09/20 11:59:15;;;;;;;2.65;1.73;;;;;;;;;;6125987;23;20006;-80
2023/09/20 12:01:42;;;;;;;2.35;1.45;;;;;;;;;;6125416;23;20006;-80
2023/09/20 12:04:08;;;;;;;2.38;1.40;;;;;;;;;;6125976;23;20010;-80
2023/09/20 12:06:35;;;;;;;3.97;1.38;;;;;;;;;;6126040;23;20450;-80
2023/09/20 12:09:03;;;;;;;2.55;1.40;;;23.20;72.40;;;;;;6125890;23;20036;-80
2023/09/20 12:11:30;;;;;;;2.28;1.40;;;;;;;;;;6125826;23;20006;-80
2023/09/20 12:13:56;;;;;;;2.88;1.40;;;;;;;;;;6125600;23;20002;-80
2023/09/20 12:16:23;;;;;;;3.15;1.38;;;;;;;;;;6125883;23;20006;-80
2023/09/20 12:18:50;;;;;;;3.15;1.60;;;;;;;;;;6125850;23;20053;-80
2023/09/20 12:21:17;;;;;;;2.15;1.55;;;;;;;;;;6125895;23;20342;-80
2023/09/20 12:23:43;;;;;;;4.28;2.00;;;;;;;;;;6125824;23;20002;-80
2023/09/20 12:26:10;;;;;;;2.03;1.15;;;;;;;;;;6125640;23;20009;-80
2023/09/20 12:28:38;;;;;;;2.03;1.38;;;;;;;;;;6125779;23;20060;-80
2023/09/20 12:31:04;;;;;;;2.10;1.25;;;;;;;;;;6125263;23;20492;-80
2023/09/20 12:33:34;;;;;;;1.35;1.20;;;23.00;70.70;;;;;;6125828;23;20009;-80
2023/09/20 12:36:00;;;;;;;1.60;1.30;;;;;;;;;;6125608;23;20088;-80
2023/09/20 12:38:29;;;;;;;2.35;1.50;;;23.00;74.50;;;;;;6135287;23;20072;-80
2023/09/20 12:40:58;;;;;;;4.00;2.08;;;22.90;73.90;;;;;;6125584;23;20346;-81
2023/09/20 12:43:25;;;;;;;5.75;2.08;;;;;;;;;;6125533;23;20005;-80
2023/09/20 12:45:52;;;;;;;2.63;1.48;;;;;;;;;;6125324;23;20001;-80
2023/09/20 12:48:19;;;;;;;2.08;1.25;;;;;;;;;;6125106;23;20002;-80
2023/09/20 12:50:46;;;;;;;1.70;1.50;;;;;;;;;;6125521;23;20009;-80
2023/09/20 12:53:13;;;;;;;3.45;1.63;;;;;;;;;;6125494;23;20370;-80
2023/09/20 12:55:40;;;;;;;2.33;1.45;;;;;;;;;;6124861;23;20029;-80
2023/09/20 12:58:07;;;;;;;2.70;1.65;;;23.20;76.30;;;;;;6125081;23;20002;-81
2023/09/20 13:00:34;;;;;;;2.75;1.85;;;23.20;76.70;;;;;;6124913;23;20006;-81
2023/09/20 13:03:03;;;;;;;3.05;1.50;;;;;;;;;;6125429;23;20345;-80
2023/09/20 13:05:30;;;;;;;2.30;1.42;;;;;;;;;;6125240;23;19998;-77
2023/09/20 13:07:57;;;;;;;2.88;1.52;;;;;;;;;;6125279;23;20006;-76
2023/09/20 13:10:23;;;;;;;4.57;1.55;;;23.20;73.00;;;;;;6125149;23;20351;-77
2023/09/20 13:12:50;;;;;;;4.45;2.03;;;;;;;;;;6125282;23;20013;-76
2023/09/20 13:15:18;;;;;;;2.03;1.52;;;;;;;;;;6125275;23;20021;-75
2023/09/20 13:17:47;;;;;;;1.80;1.52;;;23.40;73.20;;;;;;6124856;23;20006;-76
2023/09/20 13:20:14;;;;;;;1.60;1.40;;;;;;;;;;6135455;23;20014;-76
2023/09/20 13:22:41;;;;;;;2.28;1.65;;;;;;;;;;6138419;23;19998;-88
2023/09/20 13:25:19;;;;;;;2.10;1.50;;;;;;;;;;6134866;23;20030;-82
2023/09/20 13:27:54;;;;;;;1.60;1.27;;;;;;;;;;5109807;27;20380;-85
2023/09/20 13:30:26;;;;;;;5.60;1.50;;;;;;;;;;5109845;28;20129;-83
2023/09/20 13:32:53;;;;;;;2.33;1.45;;;23.50;74.00;;;;;;5110148;28;20038;-88
2023/09/20 13:35:21;;;;;;;1.67;1.58;;;;;;;;;;5109980;28;20416;-83
2023/09/20 13:37:47;;;;;;;2.70;1.35;;;;;;;;;;5109829;28;20402;-76
2023/09/20 13:40:21;;;;;;;2.38;1.70;;;23.50;72.30;;;;;;5109737;28;20103;-78
2023/09/20 13:43:03;;;;;;;2.75;1.40;;;;;;;;;;5109348;28;20028;-78
2023/09/20 13:45:31;;;;;;;1.30;1.20;;;25.40;76.90;;;;;;5109416;28;20028;-77
2023/09/20 13:47:58;;;;;;;4.75;1.65;;;;;;;;;;5109160;28;20020;-77
2023/09/20 13:50:24;;;;;;;2.58;1.92;;;;;;;;;;5109531;28;20077;-76
2023/09/20 13:52:51;;;;;;;3.30;1.42;;;;;;;;;;5109101;28;20027;-77
2023/09/20 13:55:18;;;;;;;2.83;1.50;;;;;;;;;;5109367;28;20051;-77
2023/09/20 13:57:48;;;;;;;1.92;1.45;;;;;;;;;;5109333;28;20362;-77
2023/09/20 14:00:16;;;;;;;3.03;1.50;;;23.50;75.40;;;;;;5109773;28;20031;-77
2023/09/20 14:02:43;;;;;;;2.22;1.25;;;23.50;75.60;;;;;;5108838;28;20020;-77
2023/09/20 14:05:14;;;;;;;1.98;1.10;;;23.50;74.90;;;;;;5108887;28;20095;-78
2023/09/20 14:07:48;;;;;;;1.73;0.95;;;23.60;70.00;;;;;;5109097;28;20119;-78
2023/09/20 14:10:22;;;;;;;1.73;1.30;;;23.50;70.20;;;;;;5109016;28;20024;-77
2023/09/20 14:12:52;;;;;;;2.13;1.50;;;23.50;73.10;;;;;;5109125;28;20028;-77
2023/09/20 14:15:21;;;;;;;1.90;1.30;;;23.40;75.70;;;;;;5109123;28;20012;-75
2023/09/20 14:17:48;;;;;;;1.17;1.02;;;;;;;;;;5107282;28;20126;-77
2023/09/20 14:20:21;;;;;;;1.75;1.35;;;;;;;;;;5108909;28;20032;-78
2023/09/20 14:22:52;;;;;;;1.42;1.10;;;23.40;76.00;;;;;;5108646;28;20052;-78
2023/09/20 14:25:19;;;;;;;1.75;1.13;;;21.60;72.60;;;;;;5108844;28;20069;-78
2023/09/20 14:27:46;;;;;;;1.92;1.17;;;;;;;;;;5108752;28;20457;-78
2023/09/20 14:30:17;;;;;;;1.40;0.98;;;23.40;76.40;;;;;;5108538;28;20020;-78
2023/09/20 14:32:56;;;;;;;1.17;1.00;;;23.30;76.30;;;;;;5108668;28;20028;-78
2023/09/20 14:35:22;;;;;;;1.05;0.95;;;;;;;;;;5108589;28;20020;-78
2023/09/20 14:37:53;;;;;;;2.22;1.15;;;23.40;76.20;;;;;;5102935;28;20077;-70
2023/09/20 14:40:23;;;;;;;3.33;1.08;;;23.30;70.60;;;;;;5094680;28;20107;-78
2023/09/20 14:42:51;;;;;;;3.22;1.05;;;23.30;76.10;;;;;;5094555;28;20055;-78
2023/09/20 14:45:22;;;;;;;2.08;1.13;;;23.30;76.30;;;;;;5094911;28;20035;-78
2023/09/20 14:47:52;;;;;;;2.33;0.80;;;23.30;73.20;;;;;;5094864;28;20056;-78
2023/09/20 14:50:19;;;;;;;2.72;1.13;;;23.30;75.20;;;;;;5094721;28;20023;-78
2023/09/20 14:52:46;;;;;;;2.40;1.00;;;;;;;;;;5094666;28;20028;-78